Latest Weather Observations for Hopetoun North

IDW60801

Issued at 7:33 am WST Friday 9 December 2016 (issued every 30 minutes, with the page automatically refreshed every 10 minutes)

About weather observations | Map of weather stations | Latest weather observations for WA | Other Formats
Station Details ID: 009961 Name: HOPETOUN NORTH Lat: -33.93 Lon: 120.13 Height: 26.0 m
Data from the previous 72 hours. | See also: Recent months at Hopetoun North
Date/Time
WST
Temp
°C
App
Temp
°C
Dew
Point
°C
Rel
Hum
%
Delta-T
°C
Wind Press
QNH
hPa
Press
MSL
hPa
Rain since
9am
mm
Dir  Spd
km/h
Gust
km/h
Spd
kts
Gust
kts
09/07:30am 17.4 15.1 10.3 63 3.8 NE 13 22 7 12 1019.5 1019.4 0.0
09/07:00am 15.2 13.2 10.0 71 2.7 NE 11 17 6 9 1019.7 1019.6 0.0
09/06:30am 13.3 11.4 10.5 83 1.5 NE 11 17 6 9 1019.8 1019.7 0.0
09/06:00am 10.5 8.8 9.9 96 0.3 ENE 9 11 5 6 1019.9 1019.8 0.0
09/05:30am 8.3 6.2 8.2 99 0.0 NE 9 11 5 6 1019.7 1019.6 0.0
09/05:00am 7.2 4.8 7.1 99 0.0 NE 9 11 5 6 1019.4 1019.3 0.0
09/04:30am 7.5 5.6 7.4 99 0.0 NE 7 9 4 5 1019.4 1019.3 0.0
09/04:00am 8.1 5.9 8.0 99 0.0 NE 9 13 5 7 1019.5 1019.4 0.0
09/03:30am 8.7 6.6 8.4 98 0.1 NE 9 13 5 7 1019.6 1019.5 0.0
09/03:00am 9.3 7.0 9.0 98 0.1 NE 11 13 6 7 1019.7 1019.6 0.0
09/02:30am 9.7 7.4 9.1 96 0.3 NE 11 13 6 7 1019.9 1019.8 0.0
09/02:00am 9.8 7.2 9.3 97 0.2 ENE 13 17 7 9 1020.0 1019.9 0.0
09/01:30am 9.5 7.2 8.9 96 0.3 ENE 11 13 6 7 1020.2 1020.1 0.0
09/01:00am 10.3 7.7 9.2 93 0.5 ENE 13 15 7 8 1020.6 1020.5 0.0
09/12:30am 10.7 8.9 9.5 92 0.6 NE 9 11 5 6 1020.9 1020.8 0.0
09/12:00am 10.7 8.9 9.6 93 0.6 NE 9 11 5 6 1021.2 1021.1 0.0
 
Date/Time
WST
Temp
°C
App
Temp
°C
Dew
Point
°C
Rel
Hum
%
Delta-T
°C
Wind Press
QNH
hPa
Press
MSL
hPa
Rain since
9am
mm
Dir  Spd
km/h
Gust
km/h
Spd
kts
Gust
kts
08/11:30pm 10.6 8.8 9.4 92 0.6 NE 9 11 5 6 1021.3 1021.2 0.0
08/11:00pm 10.6 9.1 9.2 91 0.7 NNE 7 9 4 5 1021.5 1021.4 0.0
08/10:30pm 10.7 9.3 9.0 89 0.8 NNE 6 7 3 4 1021.6 1021.5 0.0
08/10:00pm 11.6 10.3 9.2 85 1.2 NE 6 9 3 5 1021.7 1021.6 0.0
08/09:30pm 12.5 11.2 9.9 84 1.3 NE 7 9 4 5 1021.6 1021.5 0.0
08/09:00pm 14.0 12.4 10.2 78 2.0 ENE 9 13 5 7 1021.7 1021.6 0.0
08/08:30pm 14.5 11.7 9.9 74 2.4 E 15 22 8 12 1021.5 1021.4 0.0
08/08:00pm 14.8 12.1 10.2 74 2.4 E 15 24 8 13 1021.7 1021.6 0.0
08/07:30pm 14.9 12.5 9.9 72 2.6 E 13 20 7 11 1021.7 1021.6 0.0
08/07:00pm 15.4 12.3 10.2 71 2.7 E 17 24 9 13 1021.4 1021.3 0.0
08/06:30pm 16.2 12.7 10.3 68 3.1 ESE 19 26 10 14 1021.3 1021.2 0.0
08/06:00pm 17.1 13.5 10.7 66 3.4 ESE 20 28 11 15 1021.3 1021.2 0.0
08/05:30pm 17.6 14.0 9.8 60 4.1 ESE 19 26 10 14 1021.0 1020.9 0.0
08/05:00pm 18.1 14.3 9.7 58 4.4 ESE 20 30 11 16 1021.0 1020.9 0.0
08/04:30pm 18.3 14.4 9.6 57 4.6 SE 20 30 11 16 1021.1 1021.0 0.0
08/04:00pm 18.4 14.1 9.5 56 4.7 SSE 22 32 12 17 1021.1 1021.0 0.0
08/03:30pm 18.5 14.1 9.0 54 5.0 SSE 22 33 12 18 1021.2 1021.1 0.0
08/03:00pm 19.0 14.5 8.6 51 5.4 SE 22 32 12 17 1021.2 1021.1 0.0
08/02:30pm 18.7 14.0 9.2 54 5.0 SSE 24 35 13 19 1021.2 1021.1 0.0
08/02:00pm 18.6 14.2 8.8 53 5.1 SSE 22 32 12 17 1021.4 1021.3 0.0
08/01:30pm 19.6 15.7 9.5 52 5.4 SE 20 32 11 17 1021.4 1021.3 0.0
08/01:00pm 19.4 15.0 9.0 51 5.4 SE 22 32 12 17 1021.4 1021.3 0.0
08/12:30pm 20.1 16.2 9.4 50 5.7 SE 20 30 11 16 1021.6 1021.5 0.0
08/12:00pm 19.0 14.9 8.6 51 5.4 SSE 20 35 11 19 1021.8 1021.7 0.0
08/11:30am 19.2 15.1 7.9 48 5.8 SE 19 26 10 14 1022.2 1022.1 0.0
08/11:00am 19.6 15.6 8.3 48 5.8 SE 19 28 10 15 1022.3 1022.2 0.0
08/10:30am 19.0 14.8 8.4 50 5.5 SSE 20 30 11 16 1022.4 1022.3 0.0
08/10:00am 18.4 14.4 8.1 51 5.3 S 19 32 10 17 1022.8 1022.7 0.0
08/09:30am 18.4 15.1 8.1 51 5.3 SE 15 22 8 12 1022.8 1022.7 0.0
08/09:00am 17.8 14.4 7.5 51 5.2 SE 15 22 8 12 1022.9 1022.8 0.0
08/08:30am 17.3 14.5 8.4 56 4.6 SE 13 22 7 12 1022.6 1022.5 0.0
08/08:00am 17.3 14.0 8.2 55 4.6 SSE 15 24 8 13 1022.7 1022.6 0.0
08/07:30am 16.6 13.4 8.6 59 4.1 SSE 15 22 8 12 1022.6 1022.5 0.0
08/07:00am 16.0 13.3 9.0 63 3.6 SSE 13 24 7 13 1022.4 1022.3 0.0
08/06:30am 15.5 13.2 9.0 65 3.3 SSE 11 15 6 8 1021.9 1021.8 0.0
08/06:00am 15.3 13.6 8.5 64 3.4 S 7 13 4 7 1021.5 1021.4 0.0
08/05:30am 14.9 12.3 7.7 62 3.6 SE 11 19 6 10 1021.4 1021.3 0.0
08/05:00am 14.9 11.8 7.2 60 3.8 S 13 20 7 11 1021.2 1021.1 0.0
08/04:30am 14.7 12.5 7.7 63 3.5 SE 9 15 5 8 1020.8 1020.7 0.0
08/04:00am 14.7 12.8 7.5 62 3.5 SSE 7 13 4 7 1021.0 1020.9 0.0
08/03:30am 14.9 12.3 7.9 63 3.5 SSW 11 17 6 9 1020.7 1020.6 0.0
08/03:00am 14.9 11.9 7.5 61 3.7 SSW 13 20 7 11 1020.7 1020.6 0.0
08/02:30am 14.9 11.5 7.5 61 3.7 SSW 15 24 8 13 1020.5 1020.4 0.0
08/02:00am 15.0 12.1 8.0 63 3.5 S 13 24 7 13 1020.3 1020.2 0.0
08/01:30am 15.0 11.2 7.5 61 3.7 S 17 28 9 15 1020.4 1020.3 0.0
08/01:00am 14.5 10.2 7.1 61 3.6 S 19 30 10 16 1020.4 1020.3 0.0
08/12:30am 14.8 9.7 7.6 62 3.6 S 24 33 13 18 1020.4 1020.3 0.0
08/12:00am 15.2 10.7 8.7 65 3.3 S 22 32 12 17 1020.4 1020.3 0.0
 
Date/Time
WST
Temp
°C
App
Temp
°C
Dew
Point
°C
Rel
Hum
%
Delta-T
°C
Wind Press
QNH
hPa
Press
MSL
hPa
Rain since
9am
mm
Dir  Spd
km/h
Gust
km/h
Spd
kts
Gust
kts
07/11:30pm 15.2 11.2 10.6 74 2.4 S 22 32 12 17 1020.8 1020.7 0.0
07/11:00pm 15.8 11.4 9.0 64 3.5 SSW 22 32 12 17 1020.9 1020.8 0.0
07/10:30pm 15.6 11.2 8.8 64 3.5 SSW 22 32 12 17 1020.9 1020.8 0.0
07/10:00pm 15.5 11.1 7.3 58 4.0 SSW 20 30 11 16 1020.9 1020.8 0.0
07/09:30pm 15.7 11.1 8.2 61 3.8 SSW 22 28 12 15 1020.8 1020.7 0.0
07/09:00pm 16.0 12.0 10.3 69 3.0 SSW 22 33 12 18 1020.6 1020.5 0.0
07/08:30pm 16.1 11.6 10.0 67 3.2 SSW 24 35 13 19 1020.5 1020.4 0.0
07/08:00pm 15.6 11.3 9.5 67 3.2 SSW 22 32 12 17 1020.2 1020.1 0.0
07/07:30pm 15.8 11.1 9.2 65 3.4 SSW 24 33 13 18 1019.9 1019.8 0.0
07/07:00pm 16.1 11.4 9.3 64 3.5 SSW 24 33 13 18 1019.5 1019.4 0.0
07/06:30pm 16.2 11.0 8.9 62 3.8 SSW 26 33 14 18 1019.2 1019.1 0.0
07/06:00pm 16.6 11.5 9.3 62 3.8 SSW 26 39 14 21 1018.6 1018.5 0.0
07/05:30pm 17.7 11.7 10.1 61 4.0 SSW 32 43 17 23 1018.1 1018.0 0.0
07/05:00pm 17.8 11.8 8.6 55 4.7 SSW 30 41 16 22 1017.6 1017.5 0.0
07/04:30pm 18.8 13.1 11.1 61 4.2 SSW 32 44 17 24 1017.2 1017.1 0.0
07/04:00pm 18.1 12.0 10.5 61 4.1 SW 33 46 18 25 1017.0 1016.9 0.0
07/03:30pm 19.1 12.1 9.9 55 4.9 SSW 37 50 20 27 1016.8 1016.7 0.0
07/03:00pm 19.3 12.9 10.6 57 4.7 SSW 35 50 19 27 1016.7 1016.6 0.0
07/02:35pm 19.0 11.6 9.8 55 4.9 SW 39 59 21 32 1016.3 1016.2 0.0
07/02:30pm 18.7 11.1 10.5 59 4.4 SW 41 54 22 29 1016.4 1016.3 0.0
07/02:00pm 19.6 12.2 10.0 54 5.1 SW 39 52 21 28 1016.1 1016.0 0.0
07/01:30pm 19.7 11.3 9.0 50 5.6 SW 43 61 23 33 1015.5 1015.4 0.0
07/01:00pm 19.5 11.5 9.1 51 5.5 SW 41 61 22 33 1015.1 1015.1 0.0
07/12:59pm 20.1 12.3 9.7 51 5.6 SW 41 61 22 33 1015.2 1015.2 0.0
07/12:30pm 19.9 11.0 9.2 50 5.7 SW 46 61 25 33 1014.9 1014.9 0.0
07/12:02pm 20.3 12.3 10.4 53 5.4 SSW 43 61 23 33 1014.7 1014.7 0.0
07/12:00pm 19.9 12.3 10.6 55 5.0 SSW 41 57 22 31 1014.6 1014.6 0.0
07/11:30am 20.1 12.4 10.2 53 5.3 SW 41 61 22 33 1014.5 1014.5 0.0
07/11:06am 19.5 11.5 10.5 56 4.9 SW 43 61 23 33 1014.3 1014.3 0.0
07/11:00am 19.9 12.5 11.1 57 4.8 SW 41 56 22 30 1014.3 1014.3 0.0
07/10:30am 19.5 11.7 11.8 61 4.3 SW 44 57 24 31 1014.1 1014.1 0.0
07/10:00am 18.4 11.5 11.5 64 3.8 SW 39 57 21 31 1013.8 1013.8 0.0
07/09:38am 17.7 12.3 13.8 78 2.2 SW 35 56 19 30 1013.6 1013.6 0.0
07/09:30am 17.3 12.4 14.4 83 1.7 SW 33 48 18 26 1013.5 1013.5 0.0
07/09:01am 17.8 13.2 13.5 76 2.4 SW 30 48 16 26 1013.2 1013.2 0.0
07/09:00am 17.6 12.6 13.3 76 2.4 SW 32 48 17 26 1013.1 1013.1 0.0
07/08:37am 17.9 12.2 13.0 73 2.8 WSW 35 56 19 30 1012.8 1012.8 0.0
07/08:30am 17.9 11.4 13.0 73 2.8 WSW 39 56 21 30 1012.8 1012.8 0.0
07/08:00am 18.3 11.7 13.8 75 2.6 SW 41 61 22 33 1011.9 1011.9 0.0
07/07:52am 20.0 13.5 13.0 64 4.0 WSW 39 61 21 33 1011.7 1011.7 0.0
07/07:30am 19.0 15.1 12.0 64 3.9 WSW 24 39 13 21 1011.5 1011.5 0.0
07/07:00am 18.7 15.7 12.0 65 3.7 W 19 30 10 16 1011.1 1011.1 0.0
07/06:30am 17.9 15.7 13.4 75 2.5 WNW 17 26 9 14 1011.0 1011.0 0.0
07/06:00am 16.3 13.8 13.4 83 1.6 WNW 19 28 10 15 1011.1 1011.1 0.0
07/05:30am 15.5 13.4 13.5 88 1.1 WNW 17 22 9 12 1010.7 1010.7 0.0
07/05:00am 14.1 13.9 13.6 97 0.3 W 7 19 4 10 1010.9 1010.9 0.0
07/04:30am 13.2 12.4 12.9 98 0.2 NNW 9 13 5 7 1010.1 1010.1 0.0
07/04:00am 13.3 12.9 13.0 98 0.2 NNW 7 9 4 5 1010.2 1010.2 0.0
07/03:30am 12.9 12.0 12.6 98 0.2 NNW 9 9 5 5 1010.1 1010.1 0.0
07/03:00am 12.7 12.2 12.2 97 0.3 NNW 6 7 3 4 1010.1 1010.1 0.0
07/02:30am 13.7 13.1 13.4 98 0.2 NW 9 11 5 6 1010.1 1010.1 0.0
07/02:00am 13.4 12.6 12.9 97 0.3 NW 9 11 5 6 1010.2 1010.2 0.0
07/01:30am 13.7 13.3 12.9 95 0.4 NNW 7 9 4 5 1010.3 1010.3 0.0
07/01:00am 13.9 14.5 13.0 94 0.5 S 2 7 1 4 1010.6 1010.6 0.0
07/12:30am 13.6 14.2 12.0 90 0.9 CALM 0 0 0 0 1010.8 1010.8 0.0
07/12:00am 14.7 15.7 13.2 91 0.8 CALM 0 0 0 0 1011.1 1011.1 0.0
 
Date/Time
WST
Temp
°C
App
Temp
°C
Dew
Point
°C
Rel
Hum
%
Delta-T
°C
Wind Press
QNH
hPa
Press
MSL
hPa
Rain since
9am
mm
Dir  Spd
km/h
Gust
km/h
Spd
kts
Gust
kts
06/11:30pm 14.6 14.9 13.3 92 0.7 E 4 6 2 3 1011.3 1011.3 0.0
06/11:00pm 14.9 14.6 13.3 90 0.9 E 7 9 4 5 1011.5 1011.5 0.0
06/10:30pm 15.2 14.5 13.2 88 1.1 ESE 9 11 5 6 1011.8 1011.8 0.0
06/10:00pm 15.4 15.1 13.2 87 1.2 ESE 7 11 4 6 1012.0 1012.0 0.0
06/09:30pm 15.7 15.4 13.4 86 1.3 SE 7 11 4 6 1012.3 1012.3 0.0
06/09:00pm 15.9 15.2 13.2 84 1.5 SE 9 13 5 7 1012.4 1012.4 0.0
06/08:30pm 16.2 15.1 13.1 82 1.7 SSE 11 15 6 8 1012.4 1012.4 0.0
06/08:00pm 16.2 15.3 12.7 80 1.9 SSE 9 13 5 7 1012.3 1012.3 0.0
06/07:30pm 16.5 15.1 12.3 76 2.3 SSE 11 15 6 8 1012.2 1012.2 0.0
06/07:00pm 17.1 15.5 12.8 76 2.4 S 13 20 7 11 1012.0 1012.0 0.0
06/06:30pm 17.8 15.8 12.7 72 2.8 S 15 19 8 10 1011.9 1011.9 0.0
06/06:00pm 18.4 16.4 13.9 75 2.6 SSE 17 22 9 12 1011.7 1011.7 0.0
06/05:30pm 19.1 17.4 14.8 76 2.5 S 17 24 9 13 1011.6 1011.6 0.0
06/05:00pm 19.6 17.3 14.2 71 3.1 SSE 19 24 10 13 1011.3 1011.3 0.0
06/04:30pm 19.8 17.8 14.0 69 3.3 SSE 17 24 9 13 1011.2 1011.2 0.0
06/04:00pm 20.6 18.6 13.8 65 3.9 SE 17 20 9 11 1011.0 1011.0 0.0
06/03:30pm 20.3 17.3 13.7 66 3.8 SSE 22 28 12 15 1011.4 1011.4 0.0
06/03:00pm 20.9 18.2 14.5 67 3.7 SSE 22 30 12 16 1011.4 1011.4 0.0
06/02:30pm 20.9 18.5 14.3 66 3.8 SE 20 26 11 14 1011.7 1011.7 0.0
06/02:00pm 20.9 18.1 14.3 66 3.8 SSE 22 30 12 16 1012.1 1012.1 0.0
06/01:30pm 20.8 17.5 14.0 65 3.9 SSE 24 33 13 18 1012.1 1012.1 0.0
06/01:00pm 21.7 18.4 14.1 62 4.4 SSE 24 30 13 16 1012.4 1012.4 0.0
06/12:30pm 21.9 19.2 13.5 59 4.9 SSE 20 26 11 14 1012.8 1012.8 0.0
06/12:00pm 21.9 19.1 13.3 58 4.9 SSE 20 28 11 15 1013.4 1013.4 0.0
06/11:30am 21.8 18.9 12.9 57 5.1 S 20 28 11 15 1014.0 1014.0 0.0
06/11:00am 21.2 18.1 13.4 61 4.5 S 22 28 12 15 1014.5 1014.5 0.0
06/10:30am 21.7 19.6 13.6 60 4.7 S 17 22 9 12 1014.9 1014.9 0.0
06/10:00am 20.6 18.6 12.8 61 4.4 S 15 20 8 11 1015.3 1015.3 0.0
06/09:30am 20.8 18.9 13.0 61 4.4 S 15 20 8 11 1015.7 1015.6 0.0
06/09:00am 20.5 19.2 13.7 65 3.9 S 13 19 7 10 1015.9 1015.8 0.0
06/08:30am 20.2 20.4 13.2 64 4.0 SW 4 9 2 5 1016.6 1016.5 0.0
06/08:00am 19.1 19.2 12.6 66 3.6 W 4 9 2 5 1016.8 1016.7 0.0

Other Formats:

Comma delimited format used in spreadsheet applications
http://www.bom.gov.au/fwo/IDW60801/IDW60801.95635.axf

JavaScript Object Notation format (JSON) in row-major order
http://www.bom.gov.au/fwo/IDW60801/IDW60801.95635.json